Information Last Ob Photographs Calibration Meteogram Network Table Neighbors Monthly Summaries Observation History Wind Roses Custom Wind Roses Data Calendar Satellite Cloud Product Download

Most Recent Observation

This application displays the last observation received by the IEM from this site. The time stamp is in America/Chicago timezone.

Observation Local Time24 Feb 2024, 5:55 PM
Observation UTC Time2024-02-24T23:55:00Z
Air Temp [F]37.4
Maximum Air Temperature [F]39.2
Minimum Air Temperature [F]12.2
Dew Point [F]17.6
Wind DirectionS (180 degrees)
Wind Speed [knots]7
Altimeter [inches]29.83
Raw Observation/ProductKDEH 242355Z AUTO 18007KT 10SM CLR 03/M08 A2983 RMK AO2
Cloud Layer 1: CLR ( feet)

This data was provided by a JSON(P) webservice. You can find more JSON services.